sensor_id;sensor_type;location;lat;lon;timestamp;temperature;humidity
77582;DHT22;66726;52.388;9.986;2023-05-28T00:01:39;13.20;95.80
77582;DHT22;66726;52.388;9.986;2023-05-28T00:04:12;13.10;95.90
77582;DHT22;66726;52.388;9.986;2023-05-28T00:06:46;13.10;95.80
77582;DHT22;66726;52.388;9.986;2023-05-28T00:09:20;13.10;96.00
77582;DHT22;66726;52.388;9.986;2023-05-28T00:11:53;13.00;96.00
77582;DHT22;66726;52.388;9.986;2023-05-28T00:14:27;12.90;95.80
77582;DHT22;66726;52.388;9.986;2023-05-28T00:17:00;13.00;95.80
77582;DHT22;66726;52.388;9.986;2023-05-28T00:19:33;13.00;95.70
77582;DHT22;66726;52.388;9.986;2023-05-28T00:22:06;12.80;96.00
77582;DHT22;66726;52.388;9.986;2023-05-28T00:24:40;12.70;96.30
77582;DHT22;66726;52.388;9.986;2023-05-28T00:27:13;12.70;96.40
77582;DHT22;66726;52.388;9.986;2023-05-28T00:29:46;12.60;96.60
77582;DHT22;66726;52.388;9.986;2023-05-28T00:32:19;12.60;97.00
77582;DHT22;66726;52.388;9.986;2023-05-28T00:34:53;12.60;96.80
77582;DHT22;66726;52.388;9.986;2023-05-28T00:37:26;12.50;96.80
77582;DHT22;66726;52.388;9.986;2023-05-28T00:39:59;12.50;97.00
77582;DHT22;66726;52.388;9.986;2023-05-28T00:42:34;12.50;96.90
77582;DHT22;66726;52.388;9.986;2023-05-28T00:45:10;12.40;97.30
77582;DHT22;66726;52.388;9.986;2023-05-28T00:47:46;12.50;97.50
77582;DHT22;66726;52.388;9.986;2023-05-28T00:50:20;12.70;96.60
77582;DHT22;66726;52.388;9.986;2023-05-28T00:52:56;12.40;96.90
77582;DHT22;66726;52.388;9.986;2023-05-28T00:55:30;12.50;97.00
77582;DHT22;66726;52.388;9.986;2023-05-28T00:58:03;12.70;96.30
77582;DHT22;66726;52.388;9.986;2023-05-28T01:00:38;12.40;96.90
77582;DHT22;66726;52.388;9.986;2023-05-28T01:03:13;12.20;97.20
77582;DHT22;66726;52.388;9.986;2023-05-28T01:05:46;12.20;97.50
77582;DHT22;66726;52.388;9.986;2023-05-28T01:08:21;12.10;97.60
77582;DHT22;66726;52.388;9.986;2023-05-28T01:10:54;12.00;97.80
77582;DHT22;66726;52.388;9.986;2023-05-28T01:13:28;12.10;98.00
77582;DHT22;66726;52.388;9.986;2023-05-28T01:16:02;12.00;97.90
77582;DHT22;66726;52.388;9.986;2023-05-28T01:18:35;12.10;97.70
77582;DHT22;66726;52.388;9.986;2023-05-28T01:21:12;12.10;97.60
77582;DHT22;66726;52.388;9.986;2023-05-28T01:23:47;12.00;97.60
77582;DHT22;66726;52.388;9.986;2023-05-28T01:26:22;11.80;97.70
77582;DHT22;66726;52.388;9.986;2023-05-28T01:28:56;11.70;98.00
77582;DHT22;66726;52.388;9.986;2023-05-28T01:31:30;11.90;97.40
77582;DHT22;66726;52.388;9.986;2023-05-28T01:34:04;11.90;97.80
77582;DHT22;66726;52.388;9.986;2023-05-28T01:36:42;11.80;98.30
77582;DHT22;66726;52.388;9.986;2023-05-28T01:39:21;11.80;98.70
77582;DHT22;66726;52.388;9.986;2023-05-28T01:41:59;11.70;98.50
77582;DHT22;66726;52.388;9.986;2023-05-28T01:44:34;11.90;98.00
77582;DHT22;66726;52.388;9.986;2023-05-28T01:47:08;11.80;98.10
77582;DHT22;66726;52.388;9.986;2023-05-28T01:49:43;11.90;97.50
77582;DHT22;66726;52.388;9.986;2023-05-28T01:52:17;11.60;97.90
77582;DHT22;66726;52.388;9.986;2023-05-28T01:54:51;11.80;97.60
77582;DHT22;66726;52.388;9.986;2023-05-28T01:57:25;11.80;97.20
77582;DHT22;66726;52.388;9.986;2023-05-28T01:59:58;11.50;97.80
77582;DHT22;66726;52.388;9.986;2023-05-28T02:02:32;11.40;98.10
77582;DHT22;66726;52.388;9.986;2023-05-28T02:05:07;11.30;98.40
77582;DHT22;66726;52.388;9.986;2023-05-28T02:07:41;11.30;98.40
77582;DHT22;66726;52.388;9.986;2023-05-28T02:10:14;11.20;98.50
77582;DHT22;66726;52.388;9.986;2023-05-28T02:12:48;11.20;98.50
77582;DHT22;66726;52.388;9.986;2023-05-28T02:15:22;11.40;98.60
77582;DHT22;66726;52.388;9.986;2023-05-28T02:17:56;11.30;98.60
77582;DHT22;66726;52.388;9.986;2023-05-28T02:20:30;11.20;98.80
77582;DHT22;66726;52.388;9.986;2023-05-28T02:23:04;11.10;99.10
77582;DHT22;66726;52.388;9.986;2023-05-28T02:25:39;11.10;98.90
77582;DHT22;66726;52.388;9.986;2023-05-28T02:28:12;11.30;98.50
77582;DHT22;66726;52.388;9.986;2023-05-28T02:30:45;11.00;98.60
77582;DHT22;66726;52.388;9.986;2023-05-28T02:33:19;11.10;99.20
77582;DHT22;66726;52.388;9.986;2023-05-28T02:35:52;11.20;98.30
77582;DHT22;66726;52.388;9.986;2023-05-28T02:38:26;11.00;98.50
77582;DHT22;66726;52.388;9.986;2023-05-28T02:40:59;10.90;99.00
77582;DHT22;66726;52.388;9.986;2023-05-28T02:43:33;11.00;99.50
77582;DHT22;66726;52.388;9.986;2023-05-28T02:46:06;11.10;98.90
77582;DHT22;66726;52.388;9.986;2023-05-28T02:48:41;11.20;98.50
77582;DHT22;66726;52.388;9.986;2023-05-28T02:51:15;11.00;99.30
77582;DHT22;66726;52.388;9.986;2023-05-28T02:53:48;10.90;99.50
77582;DHT22;66726;52.388;9.986;2023-05-28T02:56:21;10.90;99.80
77582;DHT22;66726;52.388;9.986;2023-05-28T02:58:55;10.90;99.50
77582;DHT22;66726;52.388;9.986;2023-05-28T03:01:29;10.90;99.40
77582;DHT22;66726;52.388;9.986;2023-05-28T03:04:03;10.70;99.80
77582;DHT22;66726;52.388;9.986;2023-05-28T03:06:36;10.80;99.60
77582;DHT22;66726;52.388;9.986;2023-05-28T03:09:11;10.80;99.90
77582;DHT22;66726;52.388;9.986;2023-05-28T03:11:44;10.70;99.70
77582;DHT22;66726;52.388;9.986;2023-05-28T03:14:17;10.70;99.80
77582;DHT22;66726;52.388;9.986;2023-05-28T03:16:51;10.70;99.70
77582;DHT22;66726;52.388;9.986;2023-05-28T03:19:24;10.70;99.60
77582;DHT22;66726;52.388;9.986;2023-05-28T03:21:58;10.50;99.90
77582;DHT22;66726;52.388;9.986;2023-05-28T03:24:31;10.40;99.90
77582;DHT22;66726;52.388;9.986;2023-05-28T03:27:05;10.40;99.90
77582;DHT22;66726;52.388;9.986;2023-05-28T03:29:38;10.40;99.90
77582;DHT22;66726;52.388;9.986;2023-05-28T03:32:11;10.40;99.90
77582;DHT22;66726;52.388;9.986;2023-05-28T03:34:45;10.30;99.90
77582;DHT22;66726;52.388;9.986;2023-05-28T03:37:19;10.30;99.90
77582;DHT22;66726;52.388;9.986;2023-05-28T03:39:52;10.30;99.90
77582;DHT22;66726;52.388;9.986;2023-05-28T03:42:26;10.30;99.90
77582;DHT22;66726;52.388;9.986;2023-05-28T03:44:59;10.30;99.90
77582;DHT22;66726;52.388;9.986;2023-05-28T03:47:32;10.30;99.90
77582;DHT22;66726;52.388;9.986;2023-05-28T03:50:08;10.30;99.90
77582;DHT22;66726;52.388;9.986;2023-05-28T03:52:43;10.30;99.90
77582;DHT22;66726;52.388;9.986;2023-05-28T03:55:16;10.40;99.90
77582;DHT22;66726;52.388;9.986;2023-05-28T03:57:49;10.30;99.90
77582;DHT22;66726;52.388;9.986;2023-05-28T04:00:23;10.30;99.90
77582;DHT22;66726;52.388;9.986;2023-05-28T04:02:56;10.30;99.90
77582;DHT22;66726;52.388;9.986;2023-05-28T04:05:31;10.30;99.90
77582;DHT22;66726;52.388;9.986;2023-05-28T04:08:04;10.30;99.90
77582;DHT22;66726;52.388;9.986;2023-05-28T04:10:38;10.50;99.90
77582;DHT22;66726;52.388;9.986;2023-05-28T04:13:11;10.50;99.90
77582;DHT22;66726;52.388;9.986;2023-05-28T04:15:44;10.60;99.90
77582;DHT22;66726;52.388;9.986;2023-05-28T04:18:18;10.60;99.90
77582;DHT22;66726;52.388;9.986;2023-05-28T04:20:51;10.60;99.90
77582;DHT22;66726;52.388;9.986;2023-05-28T04:23:25;10.50;99.90
77582;DHT22;66726;52.388;9.986;2023-05-28T04:25:58;10.50;99.90
77582;DHT22;66726;52.388;9.986;2023-05-28T04:28:32;10.60;99.90
77582;DHT22;66726;52.388;9.986;2023-05-28T04:31:05;10.60;99.90
77582;DHT22;66726;52.388;9.986;2023-05-28T04:33:39;10.60;99.90
77582;DHT22;66726;52.388;9.986;2023-05-28T04:36:16;10.60;99.90
77582;DHT22;66726;52.388;9.986;2023-05-28T04:38:51;10.60;99.90
77582;DHT22;66726;52.388;9.986;2023-05-28T04:41:24;10.70;99.90
77582;DHT22;66726;52.388;9.986;2023-05-28T04:43:57;10.80;99.90
77582;DHT22;66726;52.388;9.986;2023-05-28T04:46:31;10.80;99.90
77582;DHT22;66726;52.388;9.986;2023-05-28T04:49:07;10.80;99.90
77582;DHT22;66726;52.388;9.986;2023-05-28T04:51:41;10.80;99.90
77582;DHT22;66726;52.388;9.986;2023-05-28T04:54:15;10.80;99.90
77582;DHT22;66726;52.388;9.986;2023-05-28T04:56:48;10.90;99.90
77582;DHT22;66726;52.388;9.986;2023-05-28T04:59:21;10.90;99.90
77582;DHT22;66726;52.388;9.986;2023-05-28T05:01:55;10.90;99.90
77582;DHT22;66726;52.388;9.986;2023-05-28T05:04:28;11.00;99.90
77582;DHT22;66726;52.388;9.986;2023-05-28T05:07:02;11.00;99.90
77582;DHT22;66726;52.388;9.986;2023-05-28T05:09:35;11.00;99.90
77582;DHT22;66726;52.388;9.986;2023-05-28T05:12:10;11.00;99.90
77582;DHT22;66726;52.388;9.986;2023-05-28T05:14:43;11.10;99.90
77582;DHT22;66726;52.388;9.986;2023-05-28T05:17:17;11.10;99.90
77582;DHT22;66726;52.388;9.986;2023-05-28T05:19:50;11.10;99.90
77582;DHT22;66726;52.388;9.986;2023-05-28T05:22:23;11.20;99.90
77582;DHT22;66726;52.388;9.986;2023-05-28T05:24:57;11.20;99.90
77582;DHT22;66726;52.388;9.986;2023-05-28T05:27:31;11.20;99.90
77582;DHT22;66726;52.388;9.986;2023-05-28T05:30:09;11.40;99.90
77582;DHT22;66726;52.388;9.986;2023-05-28T05:32:43;11.40;99.90
77582;DHT22;66726;52.388;9.986;2023-05-28T05:35:18;11.50;99.90
77582;DHT22;66726;52.388;9.986;2023-05-28T05:37:51;11.50;99.90
77582;DHT22;66726;52.388;9.986;2023-05-28T05:40:25;11.50;99.90
77582;DHT22;66726;52.388;9.986;2023-05-28T05:42:59;11.50;99.90
77582;DHT22;66726;52.388;9.986;2023-05-28T05:45:32;11.60;99.90
77582;DHT22;66726;52.388;9.986;2023-05-28T05:48:06;11.70;99.90
77582;DHT22;66726;52.388;9.986;2023-05-28T05:50:52;11.70;99.90
77582;DHT22;66726;52.388;9.986;2023-05-28T05:53:26;11.70;99.90
77582;DHT22;66726;52.388;9.986;2023-05-28T05:56:00;11.80;99.90
77582;DHT22;66726;52.388;9.986;2023-05-28T05:58:33;11.90;99.90
77582;DHT22;66726;52.388;9.986;2023-05-28T06:01:08;11.90;99.90
77582;DHT22;66726;52.388;9.986;2023-05-28T06:03:44;12.00;99.90
77582;DHT22;66726;52.388;9.986;2023-05-28T06:06:17;12.00;99.90
77582;DHT22;66726;52.388;9.986;2023-05-28T06:08:50;12.10;99.90
77582;DHT22;66726;52.388;9.986;2023-05-28T06:11:24;12.20;99.90
77582;DHT22;66726;52.388;9.986;2023-05-28T06:13:58;12.20;99.90
77582;DHT22;66726;52.388;9.986;2023-05-28T06:16:31;12.30;99.90
77582;DHT22;66726;52.388;9.986;2023-05-28T06:19:05;12.40;99.90
77582;DHT22;66726;52.388;9.986;2023-05-28T06:21:38;12.40;99.90
77582;DHT22;66726;52.388;9.986;2023-05-28T06:24:12;12.50;99.90
77582;DHT22;66726;52.388;9.986;2023-05-28T06:26:45;12.60;99.90
77582;DHT22;66726;52.388;9.986;2023-05-28T06:29:19;12.60;99.90
77582;DHT22;66726;52.388;9.986;2023-05-28T06:31:52;12.70;99.90
77582;DHT22;66726;52.388;9.986;2023-05-28T06:34:26;12.80;99.90
77582;DHT22;66726;52.388;9.986;2023-05-28T06:36:59;13.00;99.90
77582;DHT22;66726;52.388;9.986;2023-05-28T06:39:33;13.00;99.90
77582;DHT22;66726;52.388;9.986;2023-05-28T06:42:08;13.20;99.90
77582;DHT22;66726;52.388;9.986;2023-05-28T06:44:42;13.50;99.90
77582;DHT22;66726;52.388;9.986;2023-05-28T06:47:15;13.40;99.90
77582;DHT22;66726;52.388;9.986;2023-05-28T06:49:48;13.50;99.90
77582;DHT22;66726;52.388;9.986;2023-05-28T06:52:22;13.60;99.90
77582;DHT22;66726;52.388;9.986;2023-05-28T06:54:57;13.60;99.90
77582;DHT22;66726;52.388;9.986;2023-05-28T06:57:31;13.70;99.90
77582;DHT22;66726;52.388;9.986;2023-05-28T07:00:08;13.80;99.50
77582;DHT22;66726;52.388;9.986;2023-05-28T07:02:47;13.90;99.90
77582;DHT22;66726;52.388;9.986;2023-05-28T07:05:20;13.90;99.90
77582;DHT22;66726;52.388;9.986;2023-05-28T07:07:54;14.10;99.90
77582;DHT22;66726;52.388;9.986;2023-05-28T07:10:29;14.20;99.80
77582;DHT22;66726;52.388;9.986;2023-05-28T07:13:03;14.40;99.50
77582;DHT22;66726;52.388;9.986;2023-05-28T07:15:36;14.30;99.70
77582;DHT22;66726;52.388;9.986;2023-05-28T07:18:09;14.50;98.60
77582;DHT22;66726;52.388;9.986;2023-05-28T07:20:44;14.60;98.90
77582;DHT22;66726;52.388;9.986;2023-05-28T07:23:18;14.70;98.00
77582;DHT22;66726;52.388;9.986;2023-05-28T07:25:52;14.80;97.10
77582;DHT22;66726;52.388;9.986;2023-05-28T07:28:25;14.90;97.60
77582;DHT22;66726;52.388;9.986;2023-05-28T07:30:59;15.00;94.80
77582;DHT22;66726;52.388;9.986;2023-05-28T07:33:33;15.10;94.00
77582;DHT22;66726;52.388;9.986;2023-05-28T07:36:06;15.40;92.80
77582;DHT22;66726;52.388;9.986;2023-05-28T07:38:40;15.40;93.10
77582;DHT22;66726;52.388;9.986;2023-05-28T07:41:14;15.60;91.90
77582;DHT22;66726;52.388;9.986;2023-05-28T07:43:47;15.70;91.70
77582;DHT22;66726;52.388;9.986;2023-05-28T07:46:21;15.70;91.30
77582;DHT22;66726;52.388;9.986;2023-05-28T07:48:55;16.00;90.80
77582;DHT22;66726;52.388;9.986;2023-05-28T07:51:28;16.10;90.70
77582;DHT22;66726;52.388;9.986;2023-05-28T07:54:02;16.20;90.00
77582;DHT22;66726;52.388;9.986;2023-05-28T07:56:36;16.20;90.20
77582;DHT22;66726;52.388;9.986;2023-05-28T07:59:09;16.20;91.40
77582;DHT22;66726;52.388;9.986;2023-05-28T08:01:43;16.40;87.90
77582;DHT22;66726;52.388;9.986;2023-05-28T08:04:16;16.40;87.40
77582;DHT22;66726;52.388;9.986;2023-05-28T08:06:50;16.50;85.80
77582;DHT22;66726;52.388;9.986;2023-05-28T08:09:23;16.50;84.20
77582;DHT22;66726;52.388;9.986;2023-05-28T08:11:56;16.60;86.20
77582;DHT22;66726;52.388;9.986;2023-05-28T08:14:30;16.70;84.40
77582;DHT22;66726;52.388;9.986;2023-05-28T08:17:05;16.80;81.10
77582;DHT22;66726;52.388;9.986;2023-05-28T08:19:39;17.10;77.50
77582;DHT22;66726;52.388;9.986;2023-05-28T08:22:28;17.30;75.80
77582;DHT22;66726;52.388;9.986;2023-05-28T08:25:02;17.40;77.20
77582;DHT22;66726;52.388;9.986;2023-05-28T08:27:35;17.50;72.60
77582;DHT22;66726;52.388;9.986;2023-05-28T08:30:10;17.70;73.20
77582;DHT22;66726;52.388;9.986;2023-05-28T08:32:45;17.60;75.60
77582;DHT22;66726;52.388;9.986;2023-05-28T08:35:18;17.80;74.90
77582;DHT22;66726;52.388;9.986;2023-05-28T08:37:51;17.90;73.50
77582;DHT22;66726;52.388;9.986;2023-05-28T08:40:25;18.00;74.40
77582;DHT22;66726;52.388;9.986;2023-05-28T08:43:01;18.10;73.50
77582;DHT22;66726;52.388;9.986;2023-05-28T08:45:35;18.20;71.90
77582;DHT22;66726;52.388;9.986;2023-05-28T08:48:09;18.40;71.20
77582;DHT22;66726;52.388;9.986;2023-05-28T08:50:49;18.50;71.50
77582;DHT22;66726;52.388;9.986;2023-05-28T08:53:24;18.50;68.30
77582;DHT22;66726;52.388;9.986;2023-05-28T08:56:04;18.80;65.60
77582;DHT22;66726;52.388;9.986;2023-05-28T08:58:39;19.10;65.10
77582;DHT22;66726;52.388;9.986;2023-05-28T09:01:15;19.20;63.90
77582;DHT22;66726;52.388;9.986;2023-05-28T09:03:48;19.30;63.40
77582;DHT22;66726;52.388;9.986;2023-05-28T09:06:22;19.50;62.00
77582;DHT22;66726;52.388;9.986;2023-05-28T09:08:56;19.40;65.40
77582;DHT22;66726;52.388;9.986;2023-05-28T09:11:31;19.40;63.10
77582;DHT22;66726;52.388;9.986;2023-05-28T09:14:12;19.60;63.60
77582;DHT22;66726;52.388;9.986;2023-05-28T09:16:49;19.50;63.60
77582;DHT22;66726;52.388;9.986;2023-05-28T09:19:24;19.60;63.00
77582;DHT22;66726;52.388;9.986;2023-05-28T09:21:58;19.90;59.70
77582;DHT22;66726;52.388;9.986;2023-05-28T09:24:33;20.00;60.20
77582;DHT22;66726;52.388;9.986;2023-05-28T09:27:09;19.90;62.60
77582;DHT22;66726;52.388;9.986;2023-05-28T09:29:42;19.90;65.50
77582;DHT22;66726;52.388;9.986;2023-05-28T09:32:19;20.10;65.70
77582;DHT22;66726;52.388;9.986;2023-05-28T09:34:52;20.10;63.90
77582;DHT22;66726;52.388;9.986;2023-05-28T09:37:29;20.20;62.70
77582;DHT22;66726;52.388;9.986;2023-05-28T09:40:04;20.30;59.60
77582;DHT22;66726;52.388;9.986;2023-05-28T09:42:42;20.40;62.20
77582;DHT22;66726;52.388;9.986;2023-05-28T09:45:23;20.50;61.40
77582;DHT22;66726;52.388;9.986;2023-05-28T09:47:58;20.60;59.70
77582;DHT22;66726;52.388;9.986;2023-05-28T09:50:32;20.80;58.70
77582;DHT22;66726;52.388;9.986;2023-05-28T09:53:05;20.90;58.00
77582;DHT22;66726;52.388;9.986;2023-05-28T09:55:40;21.00;61.80
77582;DHT22;66726;52.388;9.986;2023-05-28T09:58:15;21.20;58.30
77582;DHT22;66726;52.388;9.986;2023-05-28T10:00:54;21.10;59.40
77582;DHT22;66726;52.388;9.986;2023-05-28T10:03:39;21.10;58.90
77582;DHT22;66726;52.388;9.986;2023-05-28T10:06:14;21.20;56.70
77582;DHT22;66726;52.388;9.986;2023-05-28T10:08:50;21.30;59.00
77582;DHT22;66726;52.388;9.986;2023-05-28T10:11:22;21.40;59.40
77582;DHT22;66726;52.388;9.986;2023-05-28T10:13:54;21.50;56.30
77582;DHT22;66726;52.388;9.986;2023-05-28T10:16:23;21.50;58.30
77582;DHT22;66726;52.388;9.986;2023-05-28T10:18:56;21.50;55.10
77582;DHT22;66726;52.388;9.986;2023-05-28T10:21:24;21.80;59.50
77582;DHT22;66726;52.388;9.986;2023-05-28T10:23:53;22.00;59.30
77582;DHT22;66726;52.388;9.986;2023-05-28T10:26:23;22.20;55.30
77582;DHT22;66726;52.388;9.986;2023-05-28T10:28:55;22.40;55.00
77582;DHT22;66726;52.388;9.986;2023-05-28T10:31:24;22.60;53.10
77582;DHT22;66726;52.388;9.986;2023-05-28T10:33:53;22.70;54.10
77582;DHT22;66726;52.388;9.986;2023-05-28T10:36:22;22.90;54.50
77582;DHT22;66726;52.388;9.986;2023-05-28T10:38:57;23.00;55.90
77582;DHT22;66726;52.388;9.986;2023-05-28T10:41:31;23.00;51.50
77582;DHT22;66726;52.388;9.986;2023-05-28T10:44:05;23.10;51.90
77582;DHT22;66726;52.388;9.986;2023-05-28T10:46:37;23.00;51.00
77582;DHT22;66726;52.388;9.986;2023-05-28T10:49:10;22.90;52.70
77582;DHT22;66726;52.388;9.986;2023-05-28T10:51:56;22.50;49.90
77582;DHT22;66726;52.388;9.986;2023-05-28T10:54:40;22.70;53.70
77582;DHT22;66726;52.388;9.986;2023-05-28T10:57:13;22.80;54.60
77582;DHT22;66726;52.388;9.986;2023-05-28T10:59:47;22.90;55.30
77582;DHT22;66726;52.388;9.986;2023-05-28T11:02:18;23.00;54.70
77582;DHT22;66726;52.388;9.986;2023-05-28T11:04:54;23.10;56.70
77582;DHT22;66726;52.388;9.986;2023-05-28T11:07:30;23.20;53.50
77582;DHT22;66726;52.388;9.986;2023-05-28T11:10:00;23.00;51.90
77582;DHT22;66726;52.388;9.986;2023-05-28T11:12:32;23.20;52.10
77582;DHT22;66726;52.388;9.986;2023-05-28T11:15:03;23.20;50.30
77582;DHT22;66726;52.388;9.986;2023-05-28T11:17:36;23.20;52.70
77582;DHT22;66726;52.388;9.986;2023-05-28T11:20:16;23.20;51.10
77582;DHT22;66726;52.388;9.986;2023-05-28T11:22:46;23.30;50.80
77582;DHT22;66726;52.388;9.986;2023-05-28T11:25:15;23.40;53.40
77582;DHT22;66726;52.388;9.986;2023-05-28T11:27:43;23.40;48.50
77582;DHT22;66726;52.388;9.986;2023-05-28T11:30:14;23.40;53.00
77582;DHT22;66726;52.388;9.986;2023-05-28T11:32:44;23.40;50.80
77582;DHT22;66726;52.388;9.986;2023-05-28T11:35:16;23.50;51.50
77582;DHT22;66726;52.388;9.986;2023-05-28T11:37:45;23.60;53.50
77582;DHT22;66726;52.388;9.986;2023-05-28T11:40:14;23.60;53.00
77582;DHT22;66726;52.388;9.986;2023-05-28T11:42:44;23.60;53.40
77582;DHT22;66726;52.388;9.986;2023-05-28T11:45:13;23.70;51.00
77582;DHT22;66726;52.388;9.986;2023-05-28T11:47:41;23.80;50.20
77582;DHT22;66726;52.388;9.986;2023-05-28T11:50:12;23.80;50.80
77582;DHT22;66726;52.388;9.986;2023-05-28T11:52:43;24.00;50.80
77582;DHT22;66726;52.388;9.986;2023-05-28T11:55:14;24.00;48.00
77582;DHT22;66726;52.388;9.986;2023-05-28T11:57:50;24.10;50.00
77582;DHT22;66726;52.388;9.986;2023-05-28T12:00:29;24.10;51.00
77582;DHT22;66726;52.388;9.986;2023-05-28T12:02:59;24.30;51.50
77582;DHT22;66726;52.388;9.986;2023-05-28T12:05:35;24.20;47.00
77582;DHT22;66726;52.388;9.986;2023-05-28T12:08:06;24.40;48.30
77582;DHT22;66726;52.388;9.986;2023-05-28T12:10:34;24.30;46.70
77582;DHT22;66726;52.388;9.986;2023-05-28T12:13:03;24.40;48.00
77582;DHT22;66726;52.388;9.986;2023-05-28T12:15:32;24.60;48.40
77582;DHT22;66726;52.388;9.986;2023-05-28T12:18:00;24.80;47.80
77582;DHT22;66726;52.388;9.986;2023-05-28T12:20:31;24.70;46.20
77582;DHT22;66726;52.388;9.986;2023-05-28T12:23:02;24.70;47.90
77582;DHT22;66726;52.388;9.986;2023-05-28T12:25:48;24.80;49.30
77582;DHT22;66726;52.388;9.986;2023-05-28T12:28:19;24.90;46.70
77582;DHT22;66726;52.388;9.986;2023-05-28T12:30:49;25.00;46.90
77582;DHT22;66726;52.388;9.986;2023-05-28T12:33:20;25.10;48.00
77582;DHT22;66726;52.388;9.986;2023-05-28T12:35:49;25.30;45.50
77582;DHT22;66726;52.388;9.986;2023-05-28T12:38:18;25.30;45.90
77582;DHT22;66726;52.388;9.986;2023-05-28T12:40:49;25.50;47.10
77582;DHT22;66726;52.388;9.986;2023-05-28T12:43:17;25.50;45.50
77582;DHT22;66726;52.388;9.986;2023-05-28T12:45:45;25.20;43.10
77582;DHT22;66726;52.388;9.986;2023-05-28T12:48:14;25.20;44.50
77582;DHT22;66726;52.388;9.986;2023-05-28T12:50:43;25.40;48.10
77582;DHT22;66726;52.388;9.986;2023-05-28T12:53:11;25.50;45.90
77582;DHT22;66726;52.388;9.986;2023-05-28T12:55:39;25.60;43.30
77582;DHT22;66726;52.388;9.986;2023-05-28T12:58:09;25.70;45.50
77582;DHT22;66726;52.388;9.986;2023-05-28T13:00:37;25.90;46.30
77582;DHT22;66726;52.388;9.986;2023-05-28T13:03:05;26.10;46.20
77582;DHT22;66726;52.388;9.986;2023-05-28T13:05:34;26.30;44.40
77582;DHT22;66726;52.388;9.986;2023-05-28T13:08:02;26.30;44.40
77582;DHT22;66726;52.388;9.986;2023-05-28T13:10:30;26.50;45.80
77582;DHT22;66726;52.388;9.986;2023-05-28T13:12:59;26.60;43.80
77582;DHT22;66726;52.388;9.986;2023-05-28T13:15:28;26.50;41.80
77582;DHT22;66726;52.388;9.986;2023-05-28T13:17:57;26.50;42.10
77582;DHT22;66726;52.388;9.986;2023-05-28T13:20:25;26.70;43.40
77582;DHT22;66726;52.388;9.986;2023-05-28T13:22:53;26.80;42.10
77582;DHT22;66726;52.388;9.986;2023-05-28T13:25:22;26.90;40.40
77582;DHT22;66726;52.388;9.986;2023-05-28T13:27:50;27.00;44.10
77582;DHT22;66726;52.388;9.986;2023-05-28T13:30:18;26.90;40.80
77582;DHT22;66726;52.388;9.986;2023-05-28T13:32:48;27.00;42.50
77582;DHT22;66726;52.388;9.986;2023-05-28T13:35:16;27.10;40.30
77582;DHT22;66726;52.388;9.986;2023-05-28T13:37:44;27.10;40.30
77582;DHT22;66726;52.388;9.986;2023-05-28T13:40:13;27.10;39.10
77582;DHT22;66726;52.388;9.986;2023-05-28T13:42:41;27.00;38.60
77582;DHT22;66726;52.388;9.986;2023-05-28T13:45:12;27.20;39.30
77582;DHT22;66726;52.388;9.986;2023-05-28T13:47:40;27.30;40.60
77582;DHT22;66726;52.388;9.986;2023-05-28T13:50:10;27.40;38.60
77582;DHT22;66726;52.388;9.986;2023-05-28T13:52:38;27.40;38.60
77582;DHT22;66726;52.388;9.986;2023-05-28T13:55:07;27.50;39.60
77582;DHT22;66726;52.388;9.986;2023-05-28T13:57:36;27.40;39.70
77582;DHT22;66726;52.388;9.986;2023-05-28T14:00:05;27.50;40.50
77582;DHT22;66726;52.388;9.986;2023-05-28T14:02:36;27.70;43.50
77582;DHT22;66726;52.388;9.986;2023-05-28T14:05:05;27.80;39.40
77582;DHT22;66726;52.388;9.986;2023-05-28T14:07:35;27.60;37.70
77582;DHT22;66726;52.388;9.986;2023-05-28T14:10:04;27.80;40.20
77582;DHT22;66726;52.388;9.986;2023-05-28T14:12:33;27.90;38.60
77582;DHT22;66726;52.388;9.986;2023-05-28T14:15:01;27.80;37.90
77582;DHT22;66726;52.388;9.986;2023-05-28T14:17:29;27.70;39.90
77582;DHT22;66726;52.388;9.986;2023-05-28T14:19:57;28.00;39.90
77582;DHT22;66726;52.388;9.986;2023-05-28T14:22:25;27.80;37.40
77582;DHT22;66726;52.388;9.986;2023-05-28T14:24:55;27.90;38.80
77582;DHT22;66726;52.388;9.986;2023-05-28T14:27:23;28.20;40.60
77582;DHT22;66726;52.388;9.986;2023-05-28T14:29:51;28.40;37.60
77582;DHT22;66726;52.388;9.986;2023-05-28T14:32:20;28.30;37.00
77582;DHT22;66726;52.388;9.986;2023-05-28T14:34:48;28.30;37.30
77582;DHT22;66726;52.388;9.986;2023-05-28T14:37:16;28.40;39.90
77582;DHT22;66726;52.388;9.986;2023-05-28T14:39:45;28.50;38.50
77582;DHT22;66726;52.388;9.986;2023-05-28T14:42:14;28.50;37.80
77582;DHT22;66726;52.388;9.986;2023-05-28T14:44:43;28.50;38.90
77582;DHT22;66726;52.388;9.986;2023-05-28T14:47:11;28.70;40.00
77582;DHT22;66726;52.388;9.986;2023-05-28T14:49:40;28.40;36.80
77582;DHT22;66726;52.388;9.986;2023-05-28T14:52:22;28.30;36.70
77582;DHT22;66726;52.388;9.986;2023-05-28T14:54:52;28.40;37.00
77582;DHT22;66726;52.388;9.986;2023-05-28T14:57:23;28.20;37.50
77582;DHT22;66726;52.388;9.986;2023-05-28T14:59:53;28.20;37.10
77582;DHT22;66726;52.388;9.986;2023-05-28T15:02:27;28.50;38.60
77582;DHT22;66726;52.388;9.986;2023-05-28T15:04:55;28.50;39.40
77582;DHT22;66726;52.388;9.986;2023-05-28T15:07:24;28.50;36.70
77582;DHT22;66726;52.388;9.986;2023-05-28T15:09:52;28.50;35.90
77582;DHT22;66726;52.388;9.986;2023-05-28T15:12:22;28.50;35.90
77582;DHT22;66726;52.388;9.986;2023-05-28T15:14:50;28.60;36.40
77582;DHT22;66726;52.388;9.986;2023-05-28T15:17:18;28.70;37.00
77582;DHT22;66726;52.388;9.986;2023-05-28T15:19:47;28.50;36.60
77582;DHT22;66726;52.388;9.986;2023-05-28T15:22:16;28.60;36.10
77582;DHT22;66726;52.388;9.986;2023-05-28T15:24:49;28.50;36.50
77582;DHT22;66726;52.388;9.986;2023-05-28T15:27:17;28.60;35.90
77582;DHT22;66726;52.388;9.986;2023-05-28T15:29:47;28.60;35.90
77582;DHT22;66726;52.388;9.986;2023-05-28T15:32:16;28.70;37.70
77582;DHT22;66726;52.388;9.986;2023-05-28T15:34:44;28.60;35.50
77582;DHT22;66726;52.388;9.986;2023-05-28T15:37:13;28.60;35.90
77582;DHT22;66726;52.388;9.986;2023-05-28T15:39:41;28.70;37.40
77582;DHT22;66726;52.388;9.986;2023-05-28T15:42:10;28.60;36.70
77582;DHT22;66726;52.388;9.986;2023-05-28T15:44:39;28.50;35.80
77582;DHT22;66726;52.388;9.986;2023-05-28T15:47:09;28.40;35.60
77582;DHT22;66726;52.388;9.986;2023-05-28T15:49:38;28.50;37.30
77582;DHT22;66726;52.388;9.986;2023-05-28T15:52:06;28.60;37.40
77582;DHT22;66726;52.388;9.986;2023-05-28T15:54:35;28.50;36.40
77582;DHT22;66726;52.388;9.986;2023-05-28T15:57:04;28.40;35.70
77582;DHT22;66726;52.388;9.986;2023-05-28T15:59:33;28.50;35.40
77582;DHT22;66726;52.388;9.986;2023-05-28T16:02:03;28.30;35.00
77582;DHT22;66726;52.388;9.986;2023-05-28T16:04:33;28.50;36.20